Time;durP1;ratioP1;P1;durP2;ratioP2;P2;SDS_P1;SDS_P2;PMS_P1;PMS_P2;Temp;Humidity;BMP_temperature;BMP_pressure;BME280_temperature;BME280_humidity;BME280_pressure;Samples;Min_cycle;Max_cycle;Signal;HPM_P1;HPM_P2
2023/11/22 00:01:53;;;;;;;;;;;;;;;2.60;70.94;102065.59;4220659;28;20453;-70
2023/11/22 00:03:55;;;;;;;;;;;;;;;2.52;70.64;102072.28;4219881;28;20014;-71
2023/11/22 00:05:57;;;;;;;;;;;;;;;2.48;70.95;102073.41;4220642;28;20034;-70
2023/11/22 00:08:04;;;;;;;;;;;;;;;2.50;71.32;102070.63;4220923;28;20015;-71
2023/11/22 00:10:15;;;;;;;;;;;;;;;2.47;71.20;102063.66;4219290;28;19928;-70
2023/11/22 00:12:18;;;;;;;;;;;;;;;2.46;71.29;102064.63;4220879;28;20023;-71
2023/11/22 00:14:30;;;;;;;;;;;;;;;2.45;71.33;102064.72;4219479;28;20031;-69
2023/11/22 00:16:34;;;;;;;;;;;;;;;2.45;71.51;102064.72;4219625;28;20014;-70
2023/11/22 00:18:37;;;;;;;;;;;;;;;2.43;71.36;102077.28;4221343;28;20023;-70
2023/11/22 00:20:38;;;;;;;;;;;;;;;2.44;71.66;102079.84;4220632;28;20026;-70
2023/11/22 00:22:40;;;;;;;;;;;;;;;2.45;71.77;102086.06;4220307;28;20360;-70
2023/11/22 00:24:42;;;;;;;;;;;;;;;2.44;71.92;102092.34;4220365;28;20015;-70
2023/11/22 00:26:44;;;;;;;;;;;;;;;2.42;71.73;102102.25;4221037;28;20030;-70
2023/11/22 00:28:46;;;;;;;;;;;;;;;2.43;71.82;102103.94;4220960;28;20429;-70
2023/11/22 00:30:49;;;;;;;;;;;;;;;2.43;71.62;102106.59;4218997;28;19932;-70
2023/11/22 00:32:52;;;;;;;;;;;;;;;2.41;71.50;102116.50;4218734;27;19924;-70
2023/11/22 00:34:54;;;;;;;;;;;;;;;2.40;71.56;102125.44;4219843;28;20019;-70
2023/11/22 00:36:56;;;;;;;;;;;;;;;2.39;71.56;102129.94;4220370;28;20023;-70
2023/11/22 00:38:58;;;;;;;;;;;;;;;2.42;71.65;102126.25;4218261;28;20465;-70
2023/11/22 00:41:01;;;;;;;;;;;;;;;2.42;71.84;102128.91;4219878;28;20007;-69
2023/11/22 00:43:03;;;;;;;;;;;;;;;2.43;71.64;102126.16;4219488;28;20047;-70
2023/11/22 00:45:08;;;;;;;;;;;;;;;2.43;71.25;102130.59;4218085;28;20022;-70
2023/11/22 00:47:10;;;;;;;;;;;;;;;2.43;71.61;102135.94;4219268;28;20462;-70
2023/11/22 00:49:12;;;;;;;;;;;;;;;2.43;71.52;102126.16;4219985;28;20660;-70
2023/11/22 00:51:15;;;;;;;;;;;;;;;2.45;71.73;102124.25;4219552;28;19928;-69
2023/11/22 00:53:18;;;;;;;;;;;;;;;2.47;71.59;102132.16;4217707;28;20028;-70
2023/11/22 00:55:20;;;;;;;;;;;;;;;2.48;71.58;102126.72;4218907;28;20034;-71
2023/11/22 00:57:21;;;;;;;;;;;;;;;2.51;71.85;102139.88;4217875;28;20027;-70
2023/11/22 00:59:23;;;;;;;;;;;;;;;2.54;71.99;102144.19;4218678;28;19955;-70
2023/11/22 01:01:26;;;;;;;;;;;;;;;2.55;71.56;102132.56;4217335;28;19999;-70
2023/11/22 01:03:28;;;;;;;;;;;;;;;2.55;71.58;102135.22;4220618;28;20644;-70
2023/11/22 01:05:30;;;;;;;;;;;;;;;2.55;71.39;102131.72;4219180;28;20014;-69
2023/11/22 01:07:32;;;;;;;;;;;;;;;2.55;71.51;102134.38;4219929;28;20015;-70
2023/11/22 01:09:34;;;;;;;;;;;;;;;2.57;71.41;102137.81;4217417;28;20016;-70
2023/11/22 01:11:36;;;;;;;;;;;;;;;2.57;71.17;102153.81;4218281;28;19928;-69
2023/11/22 01:13:43;;;;;;;;;;;;;;;2.58;71.33;102155.53;4219192;28;20027;-70
2023/11/22 01:15:45;;;;;;;;;;;;;;;2.57;71.21;102154.69;4235828;27;20470;-70
2023/11/22 01:17:48;;;;;;;;;;;;;;;2.57;70.81;102153.81;4219210;28;20019;-70
2023/11/22 01:19:52;;;;;;;;;;;;;;;2.58;71.06;102152.88;4219906;28;20050;-70
2023/11/22 01:21:54;;;;;;;;;;;;;;;2.57;71.06;102151.13;4219743;28;20486;-70
2023/11/22 01:23:56;;;;;;;;;;;;;;;2.56;71.40;102154.78;4219602;28;20020;-70
2023/11/22 01:25:58;;;;;;;;;;;;;;;2.58;71.37;102151.03;4218551;28;20473;-70
2023/11/22 01:28:00;;;;;;;;;;;;;;;2.56;70.96;102154.78;4219124;28;20027;-70
2023/11/22 01:30:03;;;;;;;;;;;;;;;2.56;70.76;102162.78;4217826;28;20023;-70
2023/11/22 01:32:05;;;;;;;;;;;;;;;2.52;70.73;102149.63;4219013;28;19935;-70
2023/11/22 01:34:09;;;;;;;;;;;;;;;2.51;70.51;102153.22;4219364;28;20043;-70
2023/11/22 01:36:11;;;;;;;;;;;;;;;2.51;70.68;102155.88;4218066;28;20035;-70
2023/11/22 01:38:13;;;;;;;;;;;;;;;2.48;70.36;102150.72;4217986;28;20027;-69
2023/11/22 01:40:15;;;;;;;;;;;;;;;2.47;70.40;102150.81;4219890;28;20014;-70
2023/11/22 01:42:17;;;;;;;;;;;;;;;2.46;70.45;102152.63;4219381;28;20003;-70
2023/11/22 01:44:19;;;;;;;;;;;;;;;2.46;70.34;102152.63;4219065;28;20011;-69
2023/11/22 01:46:23;;;;;;;;;;;;;;;2.45;70.26;102150.91;4218864;28;20034;-70
2023/11/22 01:48:25;;;;;;;;;;;;;;;2.47;70.60;102154.34;4219034;28;20367;-70
2023/11/22 01:50:28;;;;;;;;;;;;;;;2.43;70.05;102160.81;4218374;28;20031;-70
2023/11/22 01:52:31;;;;;;;;;;;;;;;2.41;70.00;102164.50;4219528;28;20026;-70
2023/11/22 01:54:32;;;;;;;;;;;;;;;2.39;69.83;102156.59;4219016;28;20031;-70
2023/11/22 01:56:34;;;;;;;;;;;;;;;2.37;69.72;102160.28;4218965;28;20023;-70
2023/11/22 01:58:35;;;;;;;;;;;;;;;2.38;69.46;102154.03;4217902;28;20018;-70
2023/11/22 02:00:37;;;;;;;;;;;;;;;2.36;69.52;102162.09;4218114;28;19924;-70
2023/11/22 02:02:38;;;;;;;;;;;;;;;2.33;69.23;102163.13;4222841;28;20560;-70
2023/11/22 02:04:40;;;;;;;;;;;;;;;2.31;68.54;102172.19;4220278;28;19996;-69
2023/11/22 02:06:44;;;;;;;;;;;;;;;2.31;68.50;102172.19;4222827;28;20018;-70
2023/11/22 02:08:46;;;;;;;;;;;;;;;2.29;68.19;102172.28;4222319;28;20372;-70
2023/11/22 02:10:58;;;;;;;;;;;;;;;2.26;68.21;102169.78;4220642;28;20019;-70
2023/11/22 02:13:04;;;;;;;;;;;;;;;2.26;68.34;102169.78;4222612;28;20022;-69
2023/11/22 02:15:06;;;;;;;;;;;;;;;2.26;68.34;102175.13;4220638;28;20043;-70
2023/11/22 02:17:08;;;;;;;;;;;;;;;2.23;67.89;102171.78;4222945;28;20507;-70
2023/11/22 02:19:14;;;;;;;;;;;;;;;2.21;67.84;102173.66;4220972;28;20099;-69
2023/11/22 02:21:17;;;;;;;;;;;;;;;2.19;68.01;102181.72;4221172;28;20022;-70
2023/11/22 02:23:20;;;;;;;;;;;;;;;2.20;68.00;102185.28;4222360;28;20022;-70
2023/11/22 02:25:22;;;;;;;;;;;;;;;2.19;68.05;102170.22;4237638;27;20022;-70
2023/11/22 02:27:24;;;;;;;;;;;;;;;2.15;67.83;102188.22;4222242;28;20007;-69
2023/11/22 02:29:27;;;;;;;;;;;;;;;2.13;67.99;102179.41;4221335;28;20035;-70
2023/11/22 02:31:28;;;;;;;;;;;;;;;2.12;68.10;102181.22;4221364;28;20402;-69
2023/11/22 02:33:30;;;;;;;;;;;;;;;2.09;68.07;102180.56;4220449;28;20815;-70
2023/11/22 02:35:32;;;;;;;;;;;;;;;2.05;68.15;102174.50;4221499;28;20019;-70
2023/11/22 02:37:35;;;;;;;;;;;;;;;2.04;68.13;102183.47;4221926;28;20376;-70
2023/11/22 02:39:41;;;;;;;;;;;;;;;2.03;68.18;102195.06;4220906;27;20014;-70
2023/11/22 02:41:44;;;;;;;;;;;;;;;2.00;67.53;102203.22;4222440;28;20027;-70
2023/11/22 02:43:46;;;;;;;;;;;;;;;1.97;67.21;102206.06;4221218;28;20461;-70
2023/11/22 02:45:48;;;;;;;;;;;;;;;1.93;66.72;102212.53;4221954;28;20027;-70
2023/11/22 02:47:49;;;;;;;;;;;;;;;1.92;67.02;102213.47;4221055;28;20007;-70
2023/11/22 02:49:51;;;;;;;;;;;;;;;1.90;66.67;102210.03;4221859;28;20046;-70
2023/11/22 02:51:53;;;;;;;;;;;;;;;1.91;66.79;102211.72;4204206;28;20391;-70
2023/11/22 02:53:55;;;;;;;;;;;;;;;1.93;67.00;102216.03;4221008;27;19935;-70
2023/11/22 02:56:01;;;;;;;;;;;;;;;1.92;66.70;102216.97;4221994;28;20015;-70
2023/11/22 02:58:03;;;;;;;;;;;;;;;1.90;66.29;102224.22;4221945;28;20011;-70
2023/11/22 03:00:07;;;;;;;;;;;;;;;1.84;65.90;102232.53;4221444;28;20011;-70
2023/11/22 03:02:08;;;;;;;;;;;;;;;1.82;65.63;102238.88;4237277;27;19987;-70
2023/11/22 03:04:10;;;;;;;;;;;;;;;1.77;65.32;102244.44;4220807;28;20022;-70
2023/11/22 03:06:12;;;;;;;;;;;;;;;1.76;65.47;102243.59;4221256;28;20015;-70
2023/11/22 03:08:15;;;;;;;;;;;;;;;1.74;65.49;102256.16;4221276;28;20006;-70
2023/11/22 03:10:18;;;;;;;;;;;;;;;1.74;65.38;102260.59;4221072;28;20027;-70
2023/11/22 03:12:23;;;;;;;;;;;;;;;1.73;64.78;102267.75;4219174;28;20019;-70
2023/11/22 03:14:24;;;;;;;;;;;;;;;1.72;64.57;102274.00;4220417;28;19932;-70
2023/11/22 03:16:26;;;;;;;;;;;;;;;1.72;64.35;102270.50;4221201;28;20007;-70
2023/11/22 03:18:27;;;;;;;;;;;;;;;1.70;63.89;102277.72;4220745;27;20018;-70
2023/11/22 03:20:30;;;;;;;;;;;;;;;1.68;64.50;102283.13;4218651;28;19981;-71
2023/11/22 03:22:33;;;;;;;;;;;;;;;1.66;64.08;102298.28;4221228;28;20015;-70
2023/11/22 03:24:38;;;;;;;;;;;;;;;1.63;63.53;102306.47;4221085;28;20113;-70
2023/11/22 03:26:40;;;;;;;;;;;;;;;1.63;63.87;102295.81;4220041;28;20364;-70
2023/11/22 03:28:43;;;;;;;;;;;;;;;1.60;63.18;102288.00;4221584;28;20379;-70
2023/11/22 03:30:45;;;;;;;;;;;;;;;1.57;63.71;102281.03;4220812;28;20014;-70
2023/11/22 03:32:48;;;;;;;;;;;;;;;1.55;64.12;102282.03;4218101;28;20026;-70
2023/11/22 03:34:50;;;;;;;;;;;;;;;1.53;64.33;102283.91;4220494;28;20396;-70
2023/11/22 03:36:53;;;;;;;;;;;;;;;1.49;63.98;102293.00;4236256;27;20022;-70
2023/11/22 03:38:54;;;;;;;;;;;;;;;1.49;63.49;102308.97;4221016;28;20026;-70
2023/11/22 03:40:57;;;;;;;;;;;;;;;1.48;63.46;102307.28;4220771;28;20447;-70
2023/11/22 03:42:59;;;;;;;;;;;;;;;1.45;63.20;102316.28;4220745;28;20014;-70
2023/11/22 03:45:01;;;;;;;;;;;;;;;1.42;63.15;102324.41;4220481;28;20015;-69
2023/11/22 03:47:03;;;;;;;;;;;;;;;1.40;63.64;102323.63;4221019;28;20014;-69
2023/11/22 03:49:04;;;;;;;;;;;;;;;1.40;63.94;102320.97;4221272;28;20586;-70
2023/11/22 03:51:06;;;;;;;;;;;;;;;1.38;64.27;102309.53;4219667;28;20035;-70
2023/11/22 03:53:08;;;;;;;;;;;;;;;1.36;64.47;102301.63;4221052;28;20019;-70
2023/11/22 03:55:10;;;;;;;;;;;;;;;1.34;64.82;102302.66;4220893;28;20772;-69
2023/11/22 03:57:12;;;;;;;;;;;;;;;1.32;64.78;102300.06;4198900;28;20022;-70
2023/11/22 03:59:14;;;;;;;;;;;;;;;1.33;64.98;102301.78;4219718;28;20367;-70
2023/11/22 04:01:18;;;;;;;;;;;;;;;1.32;65.01;102299.22;4220914;28;20584;-70
2023/11/22 04:03:20;;;;;;;;;;;;;;;1.34;65.39;102295.50;4203184;28;20028;-70
2023/11/22 04:05:22;;;;;;;;;;;;;;;1.34;65.20;102287.53;4219122;28;20067;-70
2023/11/22 04:07:24;;;;;;;;;;;;;;;1.33;65.08;102296.44;4220838;28;20023;-70
2023/11/22 04:09:26;;;;;;;;;;;;;;;1.29;65.30;102297.56;4220377;28;20460;-70
2023/11/22 04:11:29;;;;;;;;;;;;;;;1.27;65.09;102304.78;4220546;28;20026;-69
2023/11/22 04:13:31;;;;;;;;;;;;;;;1.23;65.34;102296.06;4219715;28;20006;-70
2023/11/22 04:15:32;;;;;;;;;;;;;;;1.24;65.24;102315.56;4220440;28;20580;-70
2023/11/22 04:17:37;;;;;;;;;;;;;;;1.23;65.24;102320.03;4218497;28;20019;-70
2023/11/22 04:19:38;;;;;;;;;;;;;;;1.24;65.06;102326.22;4234741;27;20014;-69
2023/11/22 04:21:40;;;;;;;;;;;;;;;1.23;64.99;102329.81;4219430;28;20015;-69
2023/11/22 04:23:42;;;;;;;;;;;;;;;1.22;65.03;102325.41;4220148;28;20014;-70
2023/11/22 04:25:44;;;;;;;;;;;;;;;1.18;65.30;102323.88;4218485;28;20023;-70
2023/11/22 04:27:46;;;;;;;;;;;;;;;1.14;65.34;102328.47;4220205;28;20011;-69
2023/11/22 04:29:48;;;;;;;;;;;;;;;1.15;65.55;102321.38;4220003;28;20019;-69
2023/11/22 04:31:50;;;;;;;;;;;;;;;1.13;65.82;102328.53;4219792;28;20014;-70
2023/11/22 04:33:54;;;;;;;;;;;;;;;1.14;66.01;102335.59;4220063;28;20022;-70
2023/11/22 04:35:56;;;;;;;;;;;;;;;1.12;66.28;102330.34;4219943;28;20428;-70
2023/11/22 04:37:58;;;;;;;;;;;;;;;1.11;66.57;102333.09;4217747;28;20007;-70
2023/11/22 04:40:01;;;;;;;;;;;;;;;1.07;66.83;102335.06;4219809;28;20010;-70
2023/11/22 04:42:03;;;;;;;;;;;;;;;1.05;67.40;102335.13;4219065;28;20027;-70
2023/11/22 04:44:05;;;;;;;;;;;;;;;1.06;67.56;102338.63;4218344;28;19928;-70
2023/11/22 04:46:08;;;;;;;;;;;;;;;1.02;67.33;102347.69;4220529;28;20374;-70
2023/11/22 04:48:09;;;;;;;;;;;;;;;1.03;67.53;102354.75;4220004;28;20032;-69
2023/11/22 04:50:12;;;;;;;;;;;;;;;1.02;67.55;102353.91;4219817;28;20665;-69
2023/11/22 04:52:15;;;;;;;;;;;;;;;1.01;67.34;102357.47;4219490;28;20085;-70
2023/11/22 04:54:17;;;;;;;;;;;;;;;1.01;67.53;102362.81;4218851;28;19970;-71
2023/11/22 04:56:19;;;;;;;;;;;;;;;0.98;67.82;102365.63;4218563;28;20489;-70
2023/11/22 04:58:21;;;;;;;;;;;;;;;0.98;67.85;102375.41;4219418;28;20022;-69
2023/11/22 05:00:22;;;;;;;;;;;;;;;0.97;67.90;102387.88;4219402;28;20051;-70
2023/11/22 05:02:26;;;;;;;;;;;;;;;0.95;68.24;102388.84;4218816;28;20402;-70
2023/11/22 05:04:28;;;;;;;;;;;;;;;0.94;68.10;102389.78;4219478;28;20018;-70
2023/11/22 05:06:32;;;;;;;;;;;;;;;0.93;68.20;102394.25;4218329;28;20061;-70
2023/11/22 05:08:34;;;;;;;;;;;;;;;0.92;68.33;102400.50;4220610;28;20454;-70
2023/11/22 05:10:36;;;;;;;;;;;;;;;0.89;67.97;102406.84;4218949;28;20011;-69
2023/11/22 05:12:38;;;;;;;;;;;;;;;0.91;68.27;102412.09;4219558;27;20376;-69
2023/11/22 05:14:40;;;;;;;;;;;;;;;0.90;68.53;102410.38;4219210;28;20448;-70
2023/11/22 05:16:42;;;;;;;;;;;;;;;0.89;68.56;102413.94;4219582;27;19930;-70
2023/11/22 05:18:44;;;;;;;;;;;;;;;0.89;68.53;102408.63;4218249;28;20027;-70
2023/11/22 05:20:48;;;;;;;;;;;;;;;0.89;68.68;102409.50;4218762;28;20072;-69
2023/11/22 05:22:51;;;;;;;;;;;;;;;0.89;68.76;102411.28;4219204;28;20019;-70
2023/11/22 05:24:53;;;;;;;;;;;;;;;0.86;68.55;102414.97;4219465;28;20035;-70
2023/11/22 05:26:55;;;;;;;;;;;;;;;0.84;68.74;102416.81;4218312;28;20015;-70
2023/11/22 05:28:56;;;;;;;;;;;;;;;0.83;69.03;102412.47;4220007;28;20467;-69
2023/11/22 05:30:58;;;;;;;;;;;;;;;0.84;69.00;102410.66;4218956;28;19936;-69
2023/11/22 05:33:00;;;;;;;;;;;;;;;0.85;69.14;102409.72;4218817;28;20014;-69
2023/11/22 05:35:02;;;;;;;;;;;;;;;0.83;69.37;102414.22;4217632;28;20015;-70
2023/11/22 05:37:05;;;;;;;;;;;;;;;0.81;69.15;102419.63;4219724;28;20377;-69
2023/11/22 05:39:09;;;;;;;;;;;;;;;0.81;69.21;102421.44;4219323;28;20022;-69
2023/11/22 05:41:11;;;;;;;;;;;;;;;0.81;69.35;102421.44;4219236;28;20034;-70
2023/11/22 05:43:13;;;;;;;;;;;;;;;0.80;69.46;102443.63;4220243;28;20019;-70
2023/11/22 05:45:15;;;;;;;;;;;;;;;0.78;69.25;102440.19;4219129;28;20027;-70
2023/11/22 05:47:18;;;;;;;;;;;;;;;0.77;69.63;102447.31;4218780;28;20023;-69
2023/11/22 05:49:20;;;;;;;;;;;;;;;0.78;69.82;102437.53;4217346;28;21380;-69
2023/11/22 05:51:22;;;;;;;;;;;;;;;0.75;69.60;102449.16;4218650;28;20014;-70
2023/11/22 05:53:24;;;;;;;;;;;;;;;0.74;69.38;102455.44;4219378;28;20387;-70
2023/11/22 05:55:27;;;;;;;;;;;;;;;0.73;69.58;102450.19;4219890;28;20011;-70
2023/11/22 05:57:28;;;;;;;;;;;;;;;0.69;69.31;102449.44;4219404;28;20480;-70
2023/11/22 05:59:31;;;;;;;;;;;;;;;0.66;69.19;102447.81;4219618;28;20011;-70
2023/11/22 06:01:33;;;;;;;;;;;;;;;0.68;69.59;102445.09;4218091;28;20027;-70
2023/11/22 06:03:36;;;;;;;;;;;;;;;0.68;69.61;102447.75;4218490;28;20024;-70
2023/11/22 06:05:38;;;;;;;;;;;;;;;0.66;69.57;102450.47;4219252;28;20019;-70
2023/11/22 06:07:40;;;;;;;;;;;;;;;0.67;69.56;102448.66;4218907;28;20018;-70
2023/11/22 06:09:42;;;;;;;;;;;;;;;0.65;69.62;102451.41;4217916;28;20505;-70
2023/11/22 06:11:45;;;;;;;;;;;;;;;0.64;69.61;102457.66;4219089;28;20027;-70
2023/11/22 06:13:48;;;;;;;;;;;;;;;0.63;69.80;102460.41;4219411;28;20030;-69
2023/11/22 06:15:50;;;;;;;;;;;;;;;0.62;69.43;102464.84;4218203;28;20018;-70
2023/11/22 06:17:52;;;;;;;;;;;;;;;0.61;69.71;102452.50;4217708;28;19932;-70
2023/11/22 06:19:54;;;;;;;;;;;;;;;0.61;69.78;102455.16;4218782;28;20043;-70
2023/11/22 06:21:56;;;;;;;;;;;;;;;0.65;69.91;102461.19;4218566;28;20462;-70
2023/11/22 06:23:58;;;;;;;;;;;;;;;0.64;70.06;102452.34;4218822;28;20018;-70
2023/11/22 06:26:00;;;;;;;;;;;;;;;0.63;69.83;102452.41;4219267;28;20382;-70
2023/11/22 06:28:04;;;;;;;;;;;;;;;0.62;69.73;102450.69;4218976;28;20453;-70
2023/11/22 06:30:07;;;;;;;;;;;;;;;0.61;69.81;102455.16;4217093;28;20849;-70
2023/11/22 06:32:09;;;;;;;;;;;;;;;0.59;69.79;102450.81;4218856;28;20365;-70
2023/11/22 06:34:12;;;;;;;;;;;;;;;0.57;69.74;102455.34;4218913;28;20585;-70
2023/11/22 06:36:14;;;;;;;;;;;;;;;0.58;69.84;102457.06;4218943;28;20031;-70
2023/11/22 06:38:17;;;;;;;;;;;;;;;0.54;69.36;102472.31;4218726;28;20027;-70
2023/11/22 06:40:20;;;;;;;;;;;;;;;0.52;69.47;102463.53;4218746;28;20372;-70
2023/11/22 06:42:22;;;;;;;;;;;;;;;0.49;69.63;102469.84;4218037;28;20027;-70
2023/11/22 06:44:26;;;;;;;;;;;;;;;0.49;69.51;102485.81;4219266;28;20034;-70
2023/11/22 06:46:28;;;;;;;;;;;;;;;0.51;69.90;102493.72;4219313;28;20445;-70
2023/11/22 06:48:30;;;;;;;;;;;;;;;0.50;69.59;102506.16;4221645;28;20007;-70
2023/11/22 06:50:32;;;;;;;;;;;;;;;0.49;69.71;102507.06;4221768;28;20022;-70
2023/11/22 06:52:33;;;;;;;;;;;;;;;0.48;69.57;102518.63;4222240;28;20022;-70
2023/11/22 06:54:35;;;;;;;;;;;;;;;0.51;69.64;102521.16;4222091;28;19932;-70
2023/11/22 06:56:37;;;;;;;;;;;;;;;0.52;69.74;102530.88;4221649;28;20023;-70
2023/11/22 06:58:39;;;;;;;;;;;;;;;0.53;69.77;102534.38;4221813;28;19931;-70
2023/11/22 07:00:43;;;;;;;;;;;;;;;0.52;69.98;102541.50;4218980;28;20026;-70
2023/11/22 07:02:45;;;;;;;;;;;;;;;0.53;69.88;102545.00;4221390;28;20085;-70
2023/11/22 07:04:47;;;;;;;;;;;;;;;0.53;69.86;102543.25;4220168;28;20015;-70
2023/11/22 07:06:49;;;;;;;;;;;;;;;0.51;69.85;102547.75;4221282;27;20014;-70
2023/11/22 07:08:51;;;;;;;;;;;;;;;0.51;69.84;102554.88;4222019;28;20028;-70
2023/11/22 07:10:52;;;;;;;;;;;;;;;0.49;69.70;102567.38;4221749;28;20424;-70
2023/11/22 07:12:55;;;;;;;;;;;;;;;0.47;69.79;102562.13;4220350;28;20043;-70
2023/11/22 07:14:59;;;;;;;;;;;;;;;0.48;69.97;102558.50;4221893;28;20023;-70
2023/11/22 07:17:02;;;;;;;;;;;;;;;0.46;69.96;102563.03;4222531;28;20015;-70
2023/11/22 07:19:06;;;;;;;;;;;;;;;0.47;69.62;102570.09;4222045;28;19934;-70
2023/11/22 07:21:08;;;;;;;;;;;;;;;0.49;69.82;102562.06;4221323;28;20018;-70
2023/11/22 07:23:13;;;;;;;;;;;;;;;0.49;69.87;102562.06;4221594;28;20366;-70
2023/11/22 07:25:19;;;;;;;;;;;;;;;0.51;69.72;102571.66;4221280;28;20030;-70
2023/11/22 07:27:22;;;;;;;;;;;;;;;0.51;69.75;102570.81;4221245;28;20458;-70
2023/11/22 07:29:26;;;;;;;;;;;;;;;0.50;69.86;102563.75;4221046;28;20020;-70
2023/11/22 07:31:29;;;;;;;;;;;;;;;0.51;69.79;102557.53;4221077;28;20030;-70
2023/11/22 07:33:32;;;;;;;;;;;;;;;0.54;70.07;102562.72;4219782;28;20011;-70
2023/11/22 07:35:34;;;;;;;;;;;;;;;0.54;69.99;102566.22;4220638;28;20020;-70
2023/11/22 07:37:39;;;;;;;;;;;;;;;0.54;69.56;102558.25;4221047;28;20388;-70
2023/11/22 07:39:42;;;;;;;;;;;;;;;0.49;69.57;102562.06;4220138;28;20097;-70
2023/11/22 07:41:45;;;;;;;;;;;;;;;0.53;69.77;102575.16;4220447;28;20014;-70
2023/11/22 07:43:47;;;;;;;;;;;;;;;0.51;70.00;102570.81;4220532;28;20457;-70
2023/11/22 07:45:51;;;;;;;;;;;;;;;0.57;70.03;102573.22;4221756;28;20023;-70
2023/11/22 07:47:53;;;;;;;;;;;;;;;0.60;70.13;102577.53;4221602;28;20482;-70
2023/11/22 07:49:56;;;;;;;;;;;;;;;0.64;70.04;102577.34;4221361;28;20469;-70
2023/11/22 07:51:58;;;;;;;;;;;;;;;0.67;70.00;102577.19;4220973;28;20015;-70
2023/11/22 07:54:00;;;;;;;;;;;;;;;0.70;70.18;102579.69;4221220;28;20026;-70
2023/11/22 07:56:04;;;;;;;;;;;;;;;0.73;69.57;102585.84;4220811;28;20022;-70
2023/11/22 07:58:06;;;;;;;;;;;;;;;0.75;69.25;102568.84;4218903;28;20668;-70
2023/11/22 08:00:09;;;;;;;;;;;;;;;0.79;68.87;102564.28;4219339;28;20561;-70
2023/11/22 08:02:17;;;;;;;;;;;;;;;0.83;68.62;102564.09;4218512;28;20019;-70
2023/11/22 08:04:19;;;;;;;;;;;;;;;0.87;68.50;102559.47;4219752;28;20591;-70
2023/11/22 08:06:22;;;;;;;;;;;;;;;0.90;68.32;102546.03;4219274;28;19936;-70
2023/11/22 08:08:25;;;;;;;;;;;;;;;0.95;68.06;102540.50;4217381;28;20023;-70
2023/11/22 08:10:27;;;;;;;;;;;;;;;0.99;67.70;102550.09;4218227;28;20015;-70
2023/11/22 08:12:29;;;;;;;;;;;;;;;1.04;67.67;102540.94;4219184;28;20030;-70
2023/11/22 08:14:32;;;;;;;;;;;;;;;1.10;67.35;102533.59;4220080;28;20011;-70
2023/11/22 08:16:38;;;;;;;;;;;;;;;1.16;67.44;102535.97;4220586;28;20018;-70
2023/11/22 08:18:40;;;;;;;;;;;;;;;1.22;66.86;102538.34;4220109;28;20023;-70
2023/11/22 08:20:43;;;;;;;;;;;;;;;1.26;66.35;102526.63;4220279;28;19924;-70
2023/11/22 08:22:46;;;;;;;;;;;;;;;1.32;66.38;102539.66;4219970;28;20476;-70
2023/11/22 08:24:48;;;;;;;;;;;;;;;1.39;66.21;102540.22;4220353;28;20454;-69
2023/11/22 08:26:50;;;;;;;;;;;;;;;1.42;65.68;102548.91;4220146;28;20030;-72
2023/11/22 08:28:51;;;;;;;;;;;;;;;1.46;65.67;102546.13;4219384;28;20623;-70
2023/11/22 08:30:56;;;;;;;;;;;;;;;1.52;65.53;102545.81;4218801;28;20035;-69
2023/11/22 08:32:57;;;;;;;;;;;;;;;1.56;65.62;102536.75;4218536;28;20015;-69
2023/11/22 08:34:59;;;;;;;;;;;;;;;1.63;65.31;102540.88;4219162;28;20007;-70
2023/11/22 08:37:01;;;;;;;;;;;;;;;1.66;65.42;102546.00;4220132;28;20022;-70
2023/11/22 08:39:04;;;;;;;;;;;;;;;1.72;64.87;102551.03;4218784;28;20053;-70
2023/11/22 08:41:06;;;;;;;;;;;;;;;1.77;64.26;102559.69;4219449;28;20474;-69
2023/11/22 08:43:08;;;;;;;;;;;;;;;1.83;64.54;102552.31;4219535;28;20019;-70
2023/11/22 08:45:11;;;;;;;;;;;;;;;1.89;63.83;102563.53;4219808;28;20067;-70
2023/11/22 08:47:14;;;;;;;;;;;;;;;1.98;64.71;102551.56;4218067;28;20484;-70
2023/11/22 08:49:16;;;;;;;;;;;;;;;2.04;64.21;102551.28;4219245;28;20003;-70
2023/11/22 08:51:18;;;;;;;;;;;;;;;2.07;63.40;102547.56;4217983;28;20019;-71
2023/11/22 08:53:19;;;;;;;;;;;;;;;2.12;63.55;102541.06;4219247;28;20042;-70
2023/11/22 08:55:24;;;;;;;;;;;;;;;2.16;63.07;102541.78;4218650;28;20047;-70
2023/11/22 08:57:25;;;;;;;;;;;;;;;2.27;63.33;102557.22;4217898;28;20051;-70
2023/11/22 08:59:27;;;;;;;;;;;;;;;2.33;63.15;102563.09;4218632;28;20028;-70
2023/11/22 09:01:29;;;;;;;;;;;;;;;2.36;61.45;102554.09;4217372;28;19935;-70
2023/11/22 09:03:32;;;;;;;;;;;;;;;2.44;61.45;102570.56;4218612;28;20010;-70
2023/11/22 09:05:34;;;;;;;;;;;;;;;2.49;60.75;102568.53;4218448;28;20018;-70
2023/11/22 09:07:35;;;;;;;;;;;;;;;2.55;60.79;102569.16;4219852;28;20481;-70
2023/11/22 09:09:37;;;;;;;;;;;;;;;2.66;62.59;102577.44;4217657;28;20010;-70
2023/11/22 09:11:40;;;;;;;;;;;;;;;2.69;61.87;102580.81;4218503;28;20015;-70
2023/11/22 09:13:42;;;;;;;;;;;;;;;2.73;61.22;102586.88;4219648;28;20022;-70
2023/11/22 09:15:44;;;;;;;;;;;;;;;2.79;60.56;102591.00;4217979;28;20015;-70
2023/11/22 09:17:47;;;;;;;;;;;;;;;2.84;60.43;102592.50;4218546;28;19963;-70
2023/11/22 09:19:50;;;;;;;;;;;;;;;2.91;60.27;102578.81;4219286;28;20015;-70
2023/11/22 09:21:52;;;;;;;;;;;;;;;2.97;60.16;102573.16;4218695;28;19928;-70
2023/11/22 09:23:54;;;;;;;;;;;;;;;3.03;60.15;102576.34;4219769;28;20015;-70
2023/11/22 09:25:56;;;;;;;;;;;;;;;3.09;59.31;102576.97;4219578;28;20595;-69
2023/11/22 09:27:59;;;;;;;;;;;;;;;3.15;59.42;102572.16;4218825;28;20354;-70
2023/11/22 09:30:00;;;;;;;;;;;;;;;3.20;58.57;102564.75;4218609;28;20047;-70
2023/11/22 09:32:02;;;;;;;;;;;;;;;3.22;58.45;102560.19;4218879;28;19994;-70
2023/11/22 09:34:04;;;;;;;;;;;;;;;3.29;58.48;102546.50;4218327;28;20010;-70
2023/11/22 09:36:07;;;;;;;;;;;;;;;3.35;58.65;102543.50;4218233;28;20039;-70
2023/11/22 09:38:11;;;;;;;;;;;;;;;3.41;58.88;102541.31;4217600;28;20011;-70
2023/11/22 09:40:13;;;;;;;;;;;;;;;3.45;58.71;102541.16;4219639;28;20003;-69
2023/11/22 09:42:15;;;;;;;;;;;;;;;3.51;58.46;102547.03;4217944;28;20279;-70
2023/11/22 09:44:19;;;;;;;;;;;;;;;3.56;58.61;102541.44;4218774;28;20038;-69
2023/11/22 09:46:21;;;;;;;;;;;;;;;3.61;58.01;102534.00;4219448;28;20077;-68
2023/11/22 09:48:24;;;;;;;;;;;;;;;3.64;57.97;102536.50;4219299;28;20022;-69
2023/11/22 09:50:28;;;;;;;;;;;;;;;3.70;58.30;102525.47;4218761;28;20027;-69
2023/11/22 09:52:29;;;;;;;;;;;;;;;3.77;58.82;102525.97;4219307;28;19992;-69
2023/11/22 09:54:33;;;;;;;;;;;;;;;3.81;58.53;102518.63;4219322;28;20019;-69
2023/11/22 09:56:36;;;;;;;;;;;;;;;3.85;58.09;102510.34;4219625;28;20019;-70
2023/11/22 09:58:43;;;;;;;;;;;;;;;3.90;58.66;102508.28;4219718;28;20014;-69
2023/11/22 10:00:47;;;;;;;;;;;;;;;3.94;58.20;102511.63;4218621;28;20023;-70
2023/11/22 10:02:48;;;;;;;;;;;;;;;3.98;58.97;102513.16;4218743;28;20015;-69
2023/11/22 10:04:51;;;;;;;;;;;;;;;4.03;59.31;102527.13;4218414;28;20031;-69
2023/11/22 10:06:53;;;;;;;;;;;;;;;4.04;57.77;102538.69;4218874;28;20596;-68
2023/11/22 10:08:56;;;;;;;;;;;;;;;4.05;57.52;102549.28;4218137;28;20038;-68
2023/11/22 10:10:57;;;;;;;;;;;;;;;4.10;58.06;102546.34;4218684;28;20083;-68
2023/11/22 10:13:01;;;;;;;;;;;;;;;4.08;56.76;102554.44;4218202;28;20027;-68
2023/11/22 10:15:12;;;;;;;;;;;;;;;4.12;57.11;102569.38;4218687;28;20030;-68
2023/11/22 10:17:16;;;;;;;;;;;;;;;4.18;56.71;102569.97;4217795;28;20007;-68
2023/11/22 10:19:18;;;;;;;;;;;;;;;4.27;58.66;102566.75;4216292;28;20465;-68
2023/11/22 10:21:21;;;;;;;;;;;;;;;4.33;59.57;102556.53;4219505;28;20370;-68
2023/11/22 10:23:28;;;;;;;;;;;;;;;4.42;60.05;102554.25;4222422;28;20007;-69
2023/11/22 10:25:32;;;;;;;;;;;;;;;4.47;60.25;102558.38;4222024;28;20465;-69
2023/11/22 10:27:33;;;;;;;;;;;;;;;4.56;61.77;102556.97;4221090;28;20026;-68
2023/11/22 10:29:36;;;;;;;;;;;;;;;4.59;59.87;102561.25;4221976;28;20023;-69
2023/11/22 10:31:38;;;;;;;;;;;;;;;4.60;58.44;102563.84;4221635;28;20011;-68
2023/11/22 10:33:42;;;;;;;;;;;;;;;4.57;54.66;102574.75;4220966;28;20007;-69
2023/11/22 10:35:44;;;;;;;;;;;;;;;4.60;54.47;102577.22;4221732;28;20034;-68
2023/11/22 10:37:46;;;;;;;;;;;;;;;4.70;57.20;102577.53;4221841;28;20018;-68
2023/11/22 10:39:51;;;;;;;;;;;;;;;4.73;56.93;102568.47;4222469;28;20030;-68